Arnegard, North Dakota
Current Conditions -  °F | °C
As of 3:52 PM on Tuesday 21 Oct 2014 (Local Time) from KISN Reporting Station
Clear Clear  
Wind Chill: 24°   Ceiling: Unl
Heat Index: 24°   Visibility: 10mi
Dew Point:   Wind: 10mph
Humidity: 31%   Direction: 150°SSE
Pressure: 29.59"   Gusts: NA
Location:  47.81°N, 103.44°W
Report Text: KISN 212052Z AUTO 15009KT 10SM CLR 24/06 A2959 RMK AO2 SLP019 T02390056 56026
Loading
Personal Weather Stations






























Interactive Weather Map
Tropical Storm Tracking
New forecast layout! Learn more

10-Day Weather Forecast

Advertisements
Track Severe Weather on mobile